Time;durP1;ratioP1;P1;durP2;ratioP2;P2;SDS_P1;SDS_P2;PMS_P1;PMS_P2;Temp;Humidity;BMP_temperature;BMP_pressure;BME280_temperature;BME280_humidity;BME280_pressure;Samples;Min_cycle;Max_cycle;Signal;HPM_P1;HPM_P2
2022/05/12 00:02:13;;;;;;;18.75;2.80;;;;;;;20.06;54.83;95891.19;10411495;28;20220;-55
2022/05/12 00:07:14;;;;;;;7.97;2.67;;;;;;;19.96;54.97;95888.31;10410550;28;20383;-57
2022/05/12 00:12:14;;;;;;;8.95;2.85;;;;;;;20.19;53.70;95871.47;10411179;28;20557;-51
2022/05/12 00:17:14;;;;;;;2.75;2.50;;;;;;;20.02;54.38;95884.69;10410512;28;20220;-55
2022/05/12 00:22:15;;;;;;;3.67;2.75;;;;;;;20.13;53.69;95869.75;10410000;28;20193;-56
2022/05/12 00:27:15;;;;;;;11.07;2.83;;;;;;;19.97;53.80;95897.91;10409934;28;20265;-56
2022/05/12 00:32:16;;;;;;;4.95;2.10;;;;;;;19.95;53.77;95887.50;10410106;28;20681;-56
2022/05/12 00:37:16;;;;;;;7.50;2.50;;;;;;;19.80;54.33;95879.25;10408597;28;20217;-52
2022/05/12 00:42:16;;;;;;;9.57;3.03;;;;;;;19.59;54.86;95889.41;10409576;28;20200;-57
2022/05/12 00:47:17;;;;;;;7.15;2.47;;;;;;;19.52;54.90;95885.25;10408965;28;20212;-57
2022/05/12 00:52:23;;;;;;;4.93;2.80;;;;;;;19.48;54.81;95892.06;10409589;28;20196;-55
2022/05/12 00:57:37;;;;;;;8.77;2.70;;;;;;;19.50;54.20;95876.72;10408581;28;20231;-59
2022/05/12 01:02:39;;;;;;;3.22;2.58;;;;;;;19.34;54.61;95884.38;10408494;28;20239;-52
2022/05/12 01:07:40;;;;;;;6.15;2.72;;;;;;;19.42;54.30;95881.34;10406733;28;20217;-59
2022/05/12 01:12:43;;;;;;;4.40;2.47;;;;;;;19.28;53.95;95860.56;10408684;28;20647;-59
2022/05/12 01:17:45;;;;;;;6.82;2.55;;;;;;;19.22;54.03;95857.03;10406856;28;20248;-56
2022/05/12 01:22:54;;;;;;;6.72;2.20;;;;;;;19.25;53.35;95843.28;10407912;28;20197;-59
2022/05/12 01:27:55;;;;;;;5.03;2.45;;;;;;;19.33;52.87;95828.84;10406261;28;20243;-59
2022/05/12 01:32:55;;;;;;;4.20;2.03;;;;;;;19.23;52.93;95837.38;10407919;28;20687;-58
2022/05/12 01:37:55;;;;;;;2.92;2.28;;;;;;;19.45;51.92;95811.03;10407677;28;20351;-55
2022/05/12 01:42:56;;;;;;;5.25;2.47;;;;;;;19.29;52.86;95831.13;10407482;28;20188;-56
2022/05/12 01:47:56;;;;;;;5.25;2.30;;;;;;;19.28;52.93;95828.69;10407151;28;20262;-57
2022/05/12 01:52:56;;;;;;;6.38;2.45;;;;;;;19.14;53.56;95850.22;10407424;28;20193;-56
2022/05/12 01:57:57;;;;;;;5.05;2.40;;;;;;;19.13;53.71;95851.25;10406963;28;20232;-53
2022/05/12 02:03:00;;;;;;;5.30;2.55;;;;;;;19.03;54.31;95874.91;10407292;28;20199;-54
2022/05/12 02:08:01;;;;;;;4.68;2.30;;;;;;;18.96;54.64;95885.63;10407140;28;20999;-55
2022/05/12 02:13:01;;;;;;;2.40;2.20;;;;;;;18.84;55.47;95904.16;10407087;28;20330;-52
2022/05/12 02:18:02;;;;;;;4.07;2.35;;;;;;;18.79;55.67;95916.50;10407047;28;20239;-57
2022/05/12 02:23:03;;;;;;;4.97;2.22;;;;;;;18.59;56.71;95944.16;10406720;28;20265;-57
2022/05/12 02:28:03;;;;;;;5.22;2.30;;;;;;;18.59;56.86;95940.69;10406560;28;20228;-56
2022/05/12 02:33:04;;;;;;;4.10;2.30;;;;;;;18.59;56.92;95940.69;10406602;28;20208;-55
2022/05/12 02:38:06;;;;;;;7.28;2.85;;;;;;;18.27;58.20;95983.31;10406542;28;20299;-54
2022/05/12 02:43:23;;;;;;;4.75;2.50;;;;;;;18.29;58.33;95984.72;10406673;28;20212;-57
2022/05/12 02:48:28;;;;;;;6.50;2.70;;;;;;;18.31;58.56;95989.81;10406412;28;20219;-52
2022/05/12 02:53:29;;;;;;;5.88;2.88;;;;;;;18.26;58.67;96010.88;10406362;28;20217;-57
2022/05/12 02:58:30;;;;;;;4.68;2.63;;;;;;;18.20;58.96;96014.44;10405645;28;20225;-56
2022/05/12 03:03:30;;;;;;;6.80;2.17;;;;;;;18.33;58.67;96006.28;10411449;28;20303;-57
2022/05/12 03:08:31;;;;;;;7.63;2.40;;;;;;;18.18;59.61;96018.09;10413090;28;20283;-58
2022/05/12 03:13:32;;;;;;;3.35;2.50;;;;;;;18.13;59.61;96023.28;10413184;28;20285;-58
2022/05/12 03:18:32;;;;;;;9.05;3.20;;;;;;;18.26;59.01;96018.84;10412838;28;20239;-54
2022/05/12 03:23:32;;;;;;;3.28;2.35;;;;;;;18.28;59.19;96032.69;10412248;28;20291;-57
2022/05/12 03:28:33;;;;;;;4.43;2.25;;;;;;;18.21;59.50;96031.94;10412212;28;20199;-58
2022/05/12 03:33:35;;;;;;;3.92;2.80;;;;;;;18.02;60.08;96042.53;10412132;28;20216;-57
2022/05/12 03:38:35;;;;;;;4.70;2.17;;;;;;;18.28;58.18;96020.22;10412420;28;20220;-58
2022/05/12 03:48:54;;;;;;;10.80;2.20;;;;;;;18.15;58.72;96047.72;10406467;28;20197;-57
2022/05/12 03:53:55;;;;;;;5.32;2.60;;;;;;;18.22;58.34;96049.47;10406945;28;20647;-58
2022/05/12 03:58:56;;;;;;;3.88;2.40;;;;;;;18.28;58.13;96054.69;10406896;28;20290;-59
2022/05/12 04:03:56;;;;;;;11.45;2.95;;;;;;;18.20;59.09;96076.22;10408025;28;20724;-55
2022/05/12 04:08:57;;;;;;;4.90;2.42;;;;;;;18.18;59.02;96092.34;10407160;28;20180;-59
2022/05/12 04:13:57;;;;;;;12.55;2.35;;;;;;;18.21;58.95;96087.59;10407023;28;20212;-57
2022/05/12 04:18:58;;;;;;;3.15;2.40;;;;;;;18.26;58.88;96083.28;10407570;28;20954;-58
2022/05/12 04:23:59;;;;;;;4.60;2.53;;;;;;;18.33;58.45;96088.50;10405372;28;20233;-50
2022/05/12 04:28:59;;;;;;;6.18;2.22;;;;;;;18.29;58.95;96097.94;10407086;28;20188;-57
2022/05/12 04:39:19;;;;;;;4.55;2.17;;;;;;;18.39;60.02;96140.66;10405870;28;20224;-59
2022/05/12 04:44:19;;;;;;;3.80;2.22;;;;;;;18.38;60.12;96148.81;10405246;28;20255;-56
2022/05/12 04:49:20;;;;;;;3.80;2.03;;;;;;;18.40;60.38;96160.03;10406289;28;20569;-58
2022/05/12 04:54:21;;;;;;;4.38;2.20;;;;;;;18.44;60.12;96170.00;10405888;28;20220;-52
2022/05/12 04:59:22;;;;;;;4.35;2.35;;;;;;;18.59;60.93;96200.66;10404855;28;20217;-59
2022/05/12 05:04:23;;;;;;;4.38;2.42;;;;;;;18.47;60.19;96187.31;10405308;28;20220;-57
2022/05/12 05:09:23;;;;;;;3.67;2.17;;;;;;;18.49;60.24;96203.81;10405177;28;20571;-59
2022/05/12 05:14:24;;;;;;;3.33;2.20;;;;;;;18.45;61.21;96227.31;10405886;28;20212;-60
2022/05/12 05:19:24;;;;;;;7.65;3.08;;;;;;;18.26;62.92;96305.19;10404737;28;20232;-60
2022/05/12 05:24:24;;;;;;;16.75;3.08;;;;;;;17.84;65.31;96369.25;10404024;28;20235;-60
2022/05/12 05:29:25;;;;;;;11.13;3.28;;;;;;;17.30;68.09;96421.53;10404089;28;20275;-59
2022/05/12 05:34:25;;;;;;;18.02;3.50;;;;;;;17.32;69.12;96427.47;10404440;28;20216;-59
2022/05/12 05:39:27;;;;;;;5.55;3.30;;;;;;;17.22;70.69;96440.31;10404778;28;20228;-54
2022/05/12 05:44:32;;;;;;;12.48;3.60;;;;;;;16.78;72.28;96437.22;10404544;28;20682;-58
2022/05/12 05:49:33;;;;;;;10.07;3.10;;;;;;;17.02;72.70;96450.91;10404448;28;20188;-59
2022/05/12 05:54:34;;;;;;;12.35;3.40;;;;;;;17.32;71.53;96451.28;10404219;28;20212;-56
2022/05/12 05:59:35;;;;;;;13.95;3.55;;;;;;;17.54;71.30;96451.06;10403110;28;20224;-57
2022/05/12 06:04:35;;;;;;;6.18;2.78;;;;;;;18.23;69.01;96438.22;10404016;28;20282;-59
2022/05/12 06:09:35;;;;;;;7.65;3.47;;;;;;;17.94;68.63;96449.13;10404063;28;20744;-55
2022/05/12 06:14:36;;;;;;;12.35;3.53;;;;;;;18.77;67.88;96444.81;10404040;28;20581;-57
2022/05/12 06:19:36;;;;;;;7.05;3.60;;;;;;;18.69;66.98;96440.56;10401091;28;20571;-55
2022/05/12 06:24:38;;;;;;;7.68;3.30;;;;;;;18.37;69.15;96471.56;10402996;28;20242;-59
2022/05/12 06:29:41;;;;;;;8.32;3.22;;;;;;;18.11;69.83;96486.56;10403733;28;20189;-58
2022/05/12 06:34:42;;;;;;;8.35;3.05;;;;;;;18.06;69.90;96509.44;10402926;28;20216;-55
2022/05/12 06:39:42;;;;;;;5.57;2.58;;;;;;;17.41;71.65;96520.72;10411429;28;20221;-57
2022/05/12 06:44:43;;;;;;;6.78;2.53;;;;;;;17.53;70.64;96518.28;10410646;28;20200;-56
2022/05/12 06:49:49;;;;;;;5.07;2.63;;;;;;;17.70;70.72;96523.97;10411348;28;20185;-58
2022/05/12 06:54:50;;;;;;;4.22;2.47;;;;;;;17.48;70.00;96527.66;10410999;28;20795;-59
2022/05/12 06:59:52;;;;;;;3.50;2.72;;;;;;;17.25;72.39;96561.69;10407167;28;20230;-59
2022/05/12 07:04:53;;;;;;;5.75;3.15;;;;;;;17.10;72.82;96559.22;10411298;28;20217;-56
2022/05/12 07:09:54;;;;;;;7.95;3.22;;;;;;;16.87;73.37;96578.09;10412454;28;20655;-59
2022/05/12 07:14:56;;;;;;;6.53;2.72;;;;;;;16.52;75.06;96597.50;10412142;28;20208;-59
2022/05/12 07:31:00;;;;;;;4.57;2.63;;;;;;;15.82;78.56;96623.91;10410054;28;20207;-58
2022/05/12 07:35:58;;;;;;;6.60;2.85;;;;;;;16.13;77.55;96614.75;10407235;28;20722;-56
2022/05/12 07:40:58;;;;;;;12.73;3.35;;;;;;;16.47;77.01;96615.75;10409352;28;20189;-58
2022/05/12 07:45:59;;;;;;;4.40;2.70;;;;;;;16.77;75.21;96618.94;10409416;28;20215;-54
2022/05/12 07:51:00;;;;;;;5.05;2.72;;;;;;;16.53;74.57;96619.44;10411677;28;20608;-60
2022/05/12 07:56:00;;;;;;;7.13;2.22;;;;;;;16.51;74.20;96640.81;10414860;28;20229;-57
2022/05/12 08:01:01;;;;;;;6.15;2.42;;;;;;;16.29;69.17;96589.84;10414740;28;20817;-55
2022/05/12 08:06:02;;;;;;;3.83;1.95;;;;;;;16.33;70.62;96608.78;10413206;28;20214;-59
2022/05/12 08:11:03;;;;;;;4.78;2.20;;;;;;;16.64;68.93;96596.91;10411949;28;20625;-55
2022/05/12 08:16:04;;;;;;;4.82;1.50;;;;;;;17.50;65.52;96571.66;10409600;28;20316;-53
2022/05/12 08:21:05;;;;;;;12.10;1.65;;;;;;;17.95;60.96;96510.91;10409319;28;20199;-57
2022/05/12 08:26:06;;;;;;;13.75;1.88;;;;;;;18.00;59.81;96519.03;10407249;28;20229;-54
2022/05/12 08:31:06;;;;;;;3.42;1.40;;;;;;;18.30;59.92;96555.66;10407331;28;20220;-55
2022/05/12 08:36:07;;;;;;;4.93;1.20;;;;;;;19.90;56.00;96503.34;10406778;28;20315;-57
2022/05/12 08:41:34;;;;;;;1.70;1.25;;;;;;;18.92;56.97;96512.75;10494558;23;20231;-59
2022/05/12 08:46:44;;;;;;;6.93;1.20;;;;;;;19.31;56.50;96524.91;10476918;28;20293;-59
2022/05/12 08:51:55;;;;;;;9.07;1.55;;;;;;;18.88;54.20;96464.56;10482129;28;20270;-57
2022/05/12 08:57:00;;;;;;;5.97;1.42;;;;;;;18.79;54.12;96482.56;10461476;28;20693;-56
2022/05/12 09:02:19;;;;;;;9.70;1.20;;;;;;;19.35;52.59;96461.53;10472906;28;20605;-59
2022/05/12 09:07:28;;;;;;;7.65;1.20;;;;;;;19.20;52.74;96475.97;10487851;28;20212;-59
2022/05/12 09:12:32;;;;;;;3.95;1.20;;;;;;;18.57;52.81;96484.72;10474864;28;20307;-59
2022/05/12 09:17:56;;;;;;;6.50;1.30;;;;;;;18.51;53.12;96499.69;10474865;28;20306;-57
2022/05/12 09:22:58;;;;;;;4.45;1.17;;;;;;;19.02;52.36;96490.00;10493131;28;20253;-57
2022/05/12 09:27:58;;;;;;;2.45;1.30;;;;;;;18.78;54.83;96551.78;10492101;28;20210;-54
2022/05/12 09:32:59;;;;;;;1.88;1.23;;;;;;;19.93;52.67;96527.63;10475132;28;20191;-55
2022/05/12 09:38:19;;;;;;;8.43;1.40;;;;;;;19.88;51.15;96487.63;10491554;28;20229;-57
2022/05/12 09:43:29;;;;;;;4.35;1.45;;;;;;;18.71;53.24;96517.31;10492579;28;20191;-56
2022/05/12 09:48:32;;;;;;;5.32;1.25;;;;;;;19.16;53.65;96543.81;10490695;28;20245;-59
2022/05/12 09:53:32;;;;;;;9.98;1.38;;;;;;;19.14;53.89;96551.19;10492186;28;20187;-58
2022/05/12 09:58:38;;;;;;;4.82;1.13;;;;;;;19.66;53.08;96547.50;10491970;28;20223;-60
2022/05/12 10:09:15;;;;;;;5.60;1.42;;;;;;;20.49;50.23;96487.72;10491961;28;20203;-57
2022/05/12 10:14:39;;;;;;;9.05;1.35;;;;;;;19.95;51.30;96504.31;10500095;28;20263;-58
2022/05/12 10:19:41;;;;;;;2.50;1.15;;;;;;;18.86;53.94;96547.06;10496364;28;20242;-59
2022/05/12 10:24:50;;;;;;;7.95;1.75;;;;;;;20.75;50.49;96502.56;10477676;28;20200;-57
2022/05/12 10:30:00;;;;;;;5.00;1.52;;;;;;;19.52;53.81;96562.75;10458514;28;20225;-58
2022/05/12 10:35:08;;;;;;;4.32;1.63;;;;;;;19.37;54.11;96577.19;10461912;28;20274;-59
2022/05/12 10:40:29;;;;;;;6.32;1.15;;;;;;;22.59;49.20;96520.34;10481663;28;20235;-60
2022/05/12 10:45:55;;;;;;;4.63;1.42;;;;;;;22.04;48.85;96493.06;10480556;28;20183;-59
2022/05/12 10:51:08;;;;;;;11.82;1.50;;;;;;;21.98;47.96;96494.00;10497341;28;20215;-59
2022/05/12 10:56:36;;;;;;;9.32;1.52;;;;;;;22.05;48.49;96507.19;10498269;28;20211;-56
2022/05/12 11:01:40;;;;;;;1.92;1.15;;;;;;;22.35;49.27;96523.06;10478484;28;20227;-61
2022/05/12 11:07:09;;;;;;;5.32;1.33;;;;;;;22.77;48.14;96489.94;10449153;28;20195;-61
2022/05/12 11:12:33;;;;;;;3.53;1.33;;;;;;;22.14;47.74;96476.44;10463473;28;20238;-58
2022/05/12 11:17:45;;;;;;;2.95;1.25;;;;;;;22.89;47.26;96481.88;10495835;28;20231;-59
2022/05/12 11:23:27;;;;;;;9.10;1.60;;;;;;;23.51;44.76;96431.03;10474464;28;20279;-56
2022/05/12 11:34:04;;;;;;;3.88;1.70;;;;;;;23.11;43.50;96377.81;10481944;28;20665;-53
2022/05/12 11:39:25;;;;;;;4.30;1.30;;;;;;;25.50;40.89;96386.16;10496684;28;20245;-55
2022/05/12 11:44:29;;;;;;;5.18;1.63;;;;;;;24.75;42.80;96414.56;10497006;28;20679;-55
2022/05/12 11:49:32;;;;;;;7.10;1.35;;;;;;;25.00;41.35;96399.75;10496056;28;20226;-54
2022/05/12 11:54:38;;;;;;;5.18;1.40;;;;;;;23.69;44.58;96443.31;10495522;28;20194;-55
2022/05/12 11:59:38;;;;;;;5.50;1.27;;;;;;;23.23;45.16;96439.16;10496199;28;20223;-58
2022/05/12 12:04:38;;;;;;;7.68;1.50;;;;;;;23.11;45.26;96447.28;10495770;28;20673;-54
2022/05/12 12:09:38;;;;;;;5.25;1.30;;;;;;;24.22;43.81;96438.34;10495990;28;20211;-57
2022/05/12 12:14:50;;;;;;;4.03;1.27;;;;;;;22.66;44.64;96410.69;10495161;28;20191;-55
2022/05/12 12:20:04;;;;;;;5.40;2.10;;;;;;;23.19;46.18;96483.47;10495518;28;20302;-62
2022/05/12 12:25:19;;;;;;;3.13;1.33;;;;;;;24.85;41.46;96400.44;10493274;28;20195;-61
2022/05/12 12:30:49;;;;;;;4.78;1.40;;;;;;;25.74;39.48;96363.22;10494138;28;20211;-62
2022/05/12 12:36:07;;;;;;;5.10;1.10;;;;;;;24.04;43.83;96441.34;10494211;28;20223;-60
2022/05/12 12:41:08;;;;;;;3.88;1.38;;;;;;;25.15;41.10;96393.69;10475961;28;20340;-60
2022/05/12 12:46:26;;;;;;;5.68;1.30;;;;;;;26.59;39.85;96391.63;10493663;28;20183;-60
2022/05/12 12:51:28;;;;;;;4.53;1.10;;;;;;;28.11;36.48;96328.13;10476290;28;20319;-60
2022/05/12 12:56:34;;;;;;;4.88;1.05;;;;;;;27.31;37.25;96348.59;10492015;28;20226;-60
2022/05/12 13:01:44;;;;;;;6.53;1.42;;;;;;;27.32;37.67;96352.13;10493765;28;20207;-61
2022/05/12 13:06:49;;;;;;;5.63;1.30;;;;;;;27.71;36.97;96351.47;10493278;28;20195;-60
2022/05/12 13:12:20;;;;;;;7.82;1.30;;;;;;;25.99;38.81;96338.34;10490696;28;20221;-60
2022/05/12 13:17:25;;;;;;;4.70;1.30;;;;;;;27.07;37.59;96351.06;10475211;28;20220;-58
2022/05/12 13:22:32;;;;;;;3.85;1.10;;;;;;;28.04;36.16;96336.53;10471576;28;20214;-60
2022/05/12 13:27:35;;;;;;;4.43;1.30;;;;;;;25.56;40.16;96374.38;10482251;28;20214;-59
2022/05/12 13:32:45;;;;;;;4.40;1.38;;;;;;;24.99;40.89;96381.25;10473792;28;20191;-61
2022/05/12 13:37:52;;;;;;;4.30;1.48;;;;;;;24.95;41.39;96397.03;10492343;28;20227;-60
2022/05/12 13:42:54;;;;;;;1.67;1.10;;;;;;;26.25;38.92;96361.75;10492547;28;20245;-58
2022/05/12 13:47:56;;;;;;;2.42;1.20;;;;;;;25.69;40.24;96383.84;10491247;28;20211;-59
2022/05/12 13:52:56;;;;;;;4.32;1.15;;;;;;;25.39;40.64;96387.97;10492470;28;20191;-60
2022/05/12 13:58:02;;;;;;;3.22;1.17;;;;;;;26.52;39.21;96370.41;10473943;28;20720;-57
2022/05/12 14:03:23;;;;;;;2.88;1.20;;;;;;;27.70;36.78;96318.38;10490733;28;20202;-57
2022/05/12 14:08:33;;;;;;;4.47;1.20;;;;;;;30.15;33.77;96310.22;10491700;28;20681;-59
2022/05/12 14:19:14;;;;;;;3.58;1.35;;;;;;;32.66;30.88;96287.53;10476314;28;20305;-60
2022/05/12 14:24:15;;;;;;;2.42;1.13;;;;;;;29.90;33.15;96275.50;10483261;28;20655;-58
2022/05/12 14:29:16;;;;;;;4.60;1.00;;;;;;;31.72;32.29;96310.81;10449342;28;20578;-60
2022/05/12 14:34:19;;;;;;;7.28;1.55;;;;;;;30.16;32.74;96268.59;10461078;28;20195;-61
2022/05/12 14:39:19;;;;;;;1.92;1.08;;;;;;;30.17;33.50;96294.53;10504323;22;20796;-59
2022/05/12 14:44:20;;;;;;;8.30;1.40;;;;;;;27.49;37.29;96335.66;10407483;28;20318;-61
2022/05/12 14:49:35;;;;;;;2.92;1.20;;;;;;;26.17;38.50;96320.13;10408197;28;20211;-60
2022/05/12 14:54:35;;;;;;;4.38;1.13;;;;;;;25.30;40.81;96373.44;10407476;28;20284;-62
2022/05/12 14:59:35;;;;;;;4.70;1.30;;;;;;;23.95;43.85;96418.78;10412156;28;20605;-61
2022/05/12 15:04:36;;;;;;;4.55;1.35;;;;;;;23.43;45.18;96447.50;10415116;28;20191;-60
2022/05/12 15:09:37;;;;;;;3.72;1.30;;;;;;;22.58;47.03;96481.31;10396938;28;20213;-61
2022/05/12 15:14:38;;;;;;;7.32;1.40;;;;;;;21.72;48.53;96501.44;10415178;28;20203;-61
2022/05/12 15:19:39;;;;;;;3.10;1.40;;;;;;;21.92;48.39;96493.06;10414801;28;20221;-61
2022/05/12 15:24:39;;;;;;;2.80;1.23;;;;;;;22.16;47.80;96482.38;10414743;28;20192;-61
2022/05/12 15:29:45;;;;;;;2.65;1.10;;;;;;;22.03;47.13;96469.28;10414655;28;20196;-60
2022/05/12 15:34:45;;;;;;;3.85;1.38;;;;;;;21.48;48.93;96503.25;10414593;28;20192;-61
2022/05/12 15:39:46;;;;;;;3.78;1.52;;;;;;;21.74;47.85;96487.88;10412674;28;20244;-61
2022/05/12 15:44:47;;;;;;;4.32;1.02;;;;;;;21.58;48.20;96484.06;10414141;28;20186;-60
2022/05/12 15:49:48;;;;;;;2.80;0.93;;;;;;;21.80;47.65;96481.59;10414039;28;20588;-61
2022/05/12 15:54:48;;;;;;;4.35;1.15;;;;;;;22.01;47.37;96488.19;10413508;28;20204;-60
2022/05/12 15:59:49;;;;;;;2.90;1.10;;;;;;;22.87;45.53;96447.38;10412835;28;20229;-61
2022/05/12 16:04:50;;;;;;;5.95;1.33;;;;;;;22.70;46.87;96481.28;10411904;28;20192;-61
2022/05/12 16:09:50;;;;;;;4.28;1.27;;;;;;;23.13;44.43;96421.09;10412817;28;20212;-61
2022/05/12 16:14:52;;;;;;;4.50;1.10;;;;;;;23.72;43.39;96406.41;10414561;28;20310;-61
2022/05/12 16:19:53;;;;;;;2.00;0.95;;;;;;;22.54;44.81;96406.25;10414360;28;20224;-58
2022/05/12 16:24:53;;;;;;;1.63;1.10;;;;;;;21.96;46.35;96440.06;10414007;28;20193;-59
2022/05/12 16:29:55;;;;;;;3.05;1.20;;;;;;;21.83;46.13;96419.81;10413869;28;20228;-58
2022/05/12 16:34:56;;;;;;;9.93;4.53;;;;;;;21.40;47.43;96441.50;10413548;28;20208;-61
2022/05/12 16:39:57;;;;;;;4.35;1.20;;;;;;;22.08;46.30;96422.19;10397136;28;20247;-61
2022/05/12 16:44:57;;;;;;;4.75;1.50;;;;;;;21.74;46.98;96429.22;10413252;28;20220;-61
2022/05/12 16:49:57;;;;;;;18.20;3.53;;;;;;;21.00;48.38;96451.78;10412835;28;20288;-61
2022/05/12 16:54:58;;;;;;;3.00;1.02;;;;;;;21.29;48.64;96454.59;10412847;28;20193;-59
2022/05/12 17:00:00;;;;;;;3.80;1.23;;;;;;;21.08;48.06;96441.84;10409987;28;20224;-56
2022/05/12 17:05:00;;;;;;;1.77;1.10;;;;;;;20.16;49.23;96457.03;10408968;28;20286;-60
2022/05/12 17:10:01;;;;;;;4.28;1.08;;;;;;;20.27;49.32;96464.25;10411853;28;20252;-59
2022/05/12 17:15:03;;;;;;;4.32;1.20;;;;;;;20.25;50.21;96486.81;10412165;28;20327;-61
2022/05/12 17:20:05;;;;;;;3.85;1.30;;;;;;;20.33;50.39;96497.13;10411345;28;20228;-60
2022/05/12 17:25:06;;;;;;;5.38;1.67;;;;;;;19.90;51.76;96517.44;10411435;28;20561;-58
2022/05/12 17:30:08;;;;;;;2.97;1.73;;;;;;;19.55;52.27;96520.59;10411147;28;20259;-59
2022/05/12 17:35:09;;;;;;;29.65;16.02;;;;;;;19.34;52.19;96513.88;10410087;28;21750;-61
2022/05/12 17:40:14;;;;;;;68.57;43.97;;;;;;;19.50;52.16;96512.50;10408103;28;20232;-60
2022/05/12 17:45:16;;;;;;;4.05;2.40;;;;;;;19.05;53.46;96531.22;10411164;28;20193;-60
2022/05/12 17:50:16;;;;;;;5.10;2.50;;;;;;;18.56;54.54;96557.41;10410995;28;20208;-60
2022/05/12 17:55:16;;;;;;;14.30;8.35;;;;;;;18.59;54.43;96558.81;10411025;28;20188;-57
2022/05/12 18:00:18;;;;;;;9.82;8.60;;;;;;;18.38;55.88;96583.78;10410049;28;20698;-56
2022/05/12 18:05:18;;;;;;;19.83;13.73;;;;;;;18.20;57.79;96630.34;10410756;28;20181;-54
2022/05/12 18:10:19;;;;;;;5.82;2.63;;;;;;;17.32;59.40;96639.28;10409955;28;20204;-54
2022/05/12 18:15:19;;;;;;;9.43;3.60;;;;;;;17.12;61.04;96663.06;10405778;28;20243;-55
2022/05/12 18:20:20;;;;;;;21.92;16.30;;;;;;;16.69;62.24;96676.47;10410335;28;20267;-58
2022/05/12 18:25:21;;;;;;;9.60;2.95;;;;;;;16.50;62.57;96670.09;10410117;28;20204;-55
2022/05/12 18:30:22;;;;;;;11.93;5.85;;;;;;;16.10;66.14;96720.06;10399577;28;20217;-55
2022/05/12 18:35:22;;;;;;;8.15;4.28;;;;;;;15.26;69.93;96724.91;10410914;28;20245;-55
2022/05/12 18:40:23;;;;;;;3.35;1.83;;;;;;;13.62;75.38;96716.81;10404714;28;20236;-54
2022/05/12 18:45:23;;;;;;;3.85;1.55;;;;;;;13.31;78.16;96703.69;10402841;28;20671;-56
2022/05/12 18:50:24;;;;;;;4.85;2.28;;;;;;;13.23;79.48;96712.44;10412160;28;20223;-56
2022/05/12 18:55:24;;;;;;;3.67;2.05;;;;;;;13.27;80.15;96708.47;10412525;28;20192;-54
2022/05/12 19:00:28;;;;;;;4.75;1.75;;;;;;;12.71;83.13;96721.72;10415811;28;20212;-53
2022/05/12 19:05:28;;;;;;;1.45;1.10;;;;;;;12.82;81.86;96723.16;10411988;28;20196;-54
2022/05/12 19:10:29;;;;;;;3.83;1.50;;;;;;;12.72;83.40;96727.78;10416616;28;20220;-52
2022/05/12 19:15:30;;;;;;;3.92;1.90;;;;;;;12.07;86.01;96742.69;10415771;28;20204;-52
2022/05/12 19:20:40;;;;;;;2.33;1.70;;;;;;;12.26;87.09;96737.06;10415983;28;20220;-52
2022/05/12 19:25:46;;;;;;;6.28;1.88;;;;;;;11.84;92.71;96753.81;10415860;28;20246;-54
2022/05/12 19:30:48;;;;;;;4.60;2.33;;;;;;;11.88;91.99;96736.75;10404746;28;20277;-55
2022/05/12 19:35:48;;;;;;;10.50;3.57;;;;;;;11.46;97.43;96740.31;10413107;28;20224;-52
2022/05/12 19:40:49;;;;;;;5.25;3.22;;;;;;;11.52;96.82;96749.34;10414519;28;20232;-52
2022/05/12 19:45:50;;;;;;;9.52;3.67;;;;;;;11.58;96.26;96739.03;10414235;28;20193;-53
2022/05/12 19:50:51;;;;;;;4.75;2.78;;;;;;;11.61;94.87;96748.38;10413077;28;20216;-55
2022/05/12 19:55:51;;;;;;;7.15;2.78;;;;;;;11.60;97.70;96754.59;10411784;28;20271;-52
2022/05/12 20:00:53;;;;;;;5.68;2.80;;;;;;;11.56;100.00;96750.66;10411121;28;20212;-52
2022/05/12 20:05:55;;;;;;;5.37;3.10;;;;;;;11.27;100.00;96751.94;10411441;28;20189;-55
2022/05/12 20:10:56;;;;;;;4.90;2.13;;;;;;;11.51;100.00;96740.66;10408562;28;20339;-50
2022/05/12 20:15:56;;;;;;;7.17;1.87;;;;;;;11.47;100.00;96738.50;10412334;28;20220;-51
2022/05/12 20:20:57;;;;;;;5.50;2.50;;;;;;;11.14;100.00;96739.25;10410926;28;20213;-52
2022/05/12 20:25:59;;;;;;;5.28;2.13;;;;;;;11.26;100.00;96750.28;10410706;28;20651;-53
2022/05/12 20:31:01;;;;;;;9.87;3.10;;;;;;;11.29;100.00;96741.28;10411227;28;20234;-51
2022/05/12 20:36:03;;;;;;;3.05;2.25;;;;;;;11.21;100.00;96748.13;10413025;28;20739;-54
2022/05/12 20:41:03;;;;;;;3.90;2.00;;;;;;;11.21;100.00;96747.31;10413975;28;20264;-57
2022/05/12 20:46:06;;;;;;;2.20;2.00;;;;;;;11.20;100.00;96745.66;10413117;28;20662;-55
2022/05/12 20:51:09;;;;;;;4.50;1.90;;;;;;;11.13;100.00;96748.09;10412891;28;20209;-52
2022/05/12 20:56:10;;;;;;;4.83;2.40;;;;;;;11.07;100.00;96744.31;10412905;28;20300;-53
2022/05/12 21:01:11;;;;;;;4.87;1.93;;;;;;;11.09;100.00;96753.81;10412198;28;20207;-51
2022/05/12 21:06:11;;;;;;;3.93;2.10;;;;;;;11.18;100.00;96763.34;10412073;28;20194;-54
2022/05/12 21:11:11;;;;;;;3.80;2.43;;;;;;;11.07;100.00;96757.44;10408837;28;20563;-53
2022/05/12 21:16:12;;;;;;;5.23;2.10;;;;;;;11.07;100.00;96767.91;10411772;28;20229;-52
2022/05/12 21:21:12;;;;;;;6.70;2.10;;;;;;;11.05;100.00;96767.22;10412119;28;20221;-52
2022/05/12 21:26:15;;;;;;;2.30;2.00;;;;;;;10.94;100.00;96771.97;10411717;28;20624;-54
2022/05/12 21:31:17;;;;;;;4.47;1.90;;;;;;;10.86;100.00;96762.25;10411802;28;20212;-53
2022/05/12 21:36:17;;;;;;;2.10;1.90;;;;;;;10.89;100.00;96760.13;10411508;28;20231;-53
2022/05/12 21:41:17;;;;;;;6.77;2.20;;;;;;;10.87;100.00;96766.50;10411097;28;20287;-51
2022/05/12 21:46:18;;;;;;;5.20;2.30;;;;;;;10.77;100.00;96763.19;10411263;28;20603;-51
2022/05/12 21:51:18;;;;;;;4.83;2.10;;;;;;;10.75;100.00;96762.50;10410597;28;20297;-54
2022/05/12 21:56:21;;;;;;;2.37;2.17;;;;;;;10.64;100.00;96767.06;10410407;28;20244;-51
2022/05/12 22:01:27;;;;;;;6.13;2.27;;;;;;;10.62;100.00;96757.72;10410424;28;20719;-54
2022/05/12 22:06:34;;;;;;;5.40;2.13;;;;;;;10.62;100.00;96758.53;10412517;28;20188;-57
2022/05/12 22:16:54;;;;;;;3.00;2.00;;;;;;;10.52;100.00;96732.44;10418621;28;20228;-52
2022/05/12 22:21:55;;;;;;;4.97;2.10;;;;;;;10.52;100.00;96736.84;10418702;28;20649;-54
2022/05/12 22:26:56;;;;;;;4.30;2.20;;;;;;;10.45;100.00;96739.28;10418276;28;20524;-53
2022/05/12 22:31:56;;;;;;;4.00;2.20;;;;;;;10.51;100.00;96733.41;10418189;28;20604;-54
2022/05/12 22:36:56;;;;;;;2.43;1.90;;;;;;;10.37;100.00;96736.63;10417810;28;20717;-57
2022/05/12 22:41:57;;;;;;;4.57;2.30;;;;;;;10.28;100.00;96727.84;10417605;28;20723;-52
2022/05/12 22:46:57;;;;;;;7.97;2.07;;;;;;;10.27;100.00;96739.28;10417711;28;20682;-53
2022/05/12 22:51:58;;;;;;;2.00;1.90;;;;;;;10.40;100.00;96732.84;10417301;28;20295;-51
2022/05/12 22:56:58;;;;;;;2.37;1.90;;;;;;;10.38;100.00;96733.00;10416340;28;20286;-56
2022/05/12 23:01:58;;;;;;;2.13;2.00;;;;;;;10.39;100.00;96739.09;10417069;28;20221;-52
2022/05/12 23:06:59;;;;;;;2.90;1.60;;;;;;;10.40;100.00;96744.16;10416570;28;20200;-54
2022/05/12 23:11:59;;;;;;;2.47;2.00;;;;;;;10.33;100.00;96751.00;10416895;28;20217;-51
2022/05/12 23:16:59;;;;;;;6.30;2.90;;;;;;;9.99;100.00;96739.44;10415414;28;20363;-53
2022/05/12 23:22:00;;;;;;;6.30;2.30;;;;;;;10.04;100.00;96725.06;10414359;28;20204;-52
2022/05/12 23:27:00;;;;;;;4.33;2.10;;;;;;;10.03;100.00;96720.81;10414329;28;20674;-55
2022/05/12 23:32:02;;;;;;;3.77;2.10;;;;;;;9.90;100.00;96727.25;10416479;28;20630;-55
2022/05/12 23:37:03;;;;;;;5.73;2.20;;;;;;;9.82;100.00;96716.75;10415961;28;20267;-54
2022/05/12 23:42:03;;;;;;;6.47;2.03;;;;;;;9.78;100.00;96708.34;10415112;28;20772;-54
2022/05/12 23:47:05;;;;;;;3.37;2.33;;;;;;;9.75;100.00;96705.22;10415396;28;20191;-54
2022/05/12 23:52:07;;;;;;;4.03;2.20;;;;;;;9.74;100.00;96704.41;10415268;28;20699;-55
2022/05/12 23:57:07;;;;;;;3.10;2.10;;;;;;;9.72;100.00;96701.13;10414256;28;20224;-52
